sensor_id;sensor_type;location;lat;lon;timestamp;temperature;humidity
76040;SHT30;64736;50.462;4.850;2023-02-02T00:02:04;7.72;77.38
76040;SHT30;64736;50.462;4.850;2023-02-02T00:04:32;7.84;77.07
76040;SHT30;64736;50.462;4.850;2023-02-02T00:06:58;7.78;76.95
76040;SHT30;64736;50.462;4.850;2023-02-02T00:09:29;7.81;77.15
76040;SHT30;64736;50.462;4.850;2023-02-02T00:11:56;7.81;77.03
76040;SHT30;64736;50.462;4.850;2023-02-02T00:14:22;7.78;77.24
76040;SHT30;64736;50.462;4.850;2023-02-02T00:16:50;7.78;77.27
76040;SHT30;64736;50.462;4.850;2023-02-02T00:19:24;7.79;77.28
76040;SHT30;64736;50.462;4.850;2023-02-02T00:21:51;7.79;77.23
76040;SHT30;64736;50.462;4.850;2023-02-02T00:24:17;7.78;77.29
76040;SHT30;64736;50.462;4.850;2023-02-02T00:26:45;7.75;77.39
76040;SHT30;64736;50.462;4.850;2023-02-02T00:29:19;7.78;77.42
76040;SHT30;64736;50.462;4.850;2023-02-02T00:31:45;7.72;77.34
76040;SHT30;64736;50.462;4.850;2023-02-02T00:34:12;7.70;77.50
76040;SHT30;64736;50.462;4.850;2023-02-02T00:36:38;7.71;77.31
76040;SHT30;64736;50.462;4.850;2023-02-02T00:39:04;7.75;77.49
76040;SHT30;64736;50.462;4.850;2023-02-02T00:41:30;7.71;77.37
76040;SHT30;64736;50.462;4.850;2023-02-02T00:43:56;7.72;77.48
76040;SHT30;64736;50.462;4.850;2023-02-02T00:46:41;7.71;77.23
76040;SHT30;64736;50.462;4.850;2023-02-02T00:49:07;7.72;77.29
76040;SHT30;64736;50.462;4.850;2023-02-02T00:51:34;7.72;77.33
76040;SHT30;64736;50.462;4.850;2023-02-02T00:54:00;7.70;77.22
76040;SHT30;64736;50.462;4.850;2023-02-02T00:56:26;7.71;77.29
76040;SHT30;64736;50.462;4.850;2023-02-02T00:58:52;7.68;77.24
76040;SHT30;64736;50.462;4.850;2023-02-02T01:01:19;7.70;77.33
76040;SHT30;64736;50.462;4.850;2023-02-02T01:03:48;7.68;77.31
76040;SHT30;64736;50.462;4.850;2023-02-02T01:06:15;7.68;77.35
76040;SHT30;64736;50.462;4.850;2023-02-02T01:08:41;7.74;76.98
76040;SHT30;64736;50.462;4.850;2023-02-02T01:11:07;7.70;77.14
76040;SHT30;64736;50.462;4.850;2023-02-02T01:13:33;7.72;77.01
76040;SHT30;64736;50.462;4.850;2023-02-02T01:16:00;7.70;77.04
76040;SHT30;64736;50.462;4.850;2023-02-02T01:18:27;7.70;76.85
76040;SHT30;64736;50.462;4.850;2023-02-02T01:20:58;7.70;76.92
76040;SHT30;64736;50.462;4.850;2023-02-02T01:23:24;7.72;77.09
76040;SHT30;64736;50.462;4.850;2023-02-02T01:25:57;7.72;76.76
76040;SHT30;64736;50.462;4.850;2023-02-02T01:28:24;7.72;76.91
76040;SHT30;64736;50.462;4.850;2023-02-02T01:30:50;7.72;76.88
76040;SHT30;64736;50.462;4.850;2023-02-02T01:33:16;7.72;76.89
76040;SHT30;64736;50.462;4.850;2023-02-02T01:35:50;7.74;76.87
76040;SHT30;64736;50.462;4.850;2023-02-02T01:38:17;7.72;77.00
76040;SHT30;64736;50.462;4.850;2023-02-02T01:40:48;7.70;76.88
76040;SHT30;64736;50.462;4.850;2023-02-02T01:43:24;7.71;76.97
76040;SHT30;64736;50.462;4.850;2023-02-02T01:45:51;7.70;77.25
76040;SHT30;64736;50.462;4.850;2023-02-02T01:48:19;7.70;77.12
76040;SHT30;64736;50.462;4.850;2023-02-02T01:50:47;7.74;77.20
76040;SHT30;64736;50.462;4.850;2023-02-02T01:53:14;7.72;77.01
76040;SHT30;64736;50.462;4.850;2023-02-02T01:55:42;7.70;77.16
76040;SHT30;64736;50.462;4.850;2023-02-02T01:58:17;7.70;77.22
76040;SHT30;64736;50.462;4.850;2023-02-02T02:00:43;7.71;77.14
76040;SHT30;64736;50.462;4.850;2023-02-02T02:03:12;7.68;77.31
76040;SHT30;64736;50.462;4.850;2023-02-02T02:05:47;7.64;77.47
76040;SHT30;64736;50.462;4.850;2023-02-02T02:08:31;7.68;77.42
76040;SHT30;64736;50.462;4.850;2023-02-02T02:11:00;7.60;77.65
76040;SHT30;64736;50.462;4.850;2023-02-02T02:13:27;7.68;77.35
76040;SHT30;64736;50.462;4.850;2023-02-02T02:16:48;7.67;77.29
76040;SHT30;64736;50.462;4.850;2023-02-02T02:22:30;7.67;77.46
76040;SHT30;64736;50.462;4.850;2023-02-02T02:25:51;7.64;77.55
76040;SHT30;64736;50.462;4.850;2023-02-02T02:36:55;7.61;77.72
76040;SHT30;64736;50.462;4.850;2023-02-02T02:39:36;7.58;77.70
76040;SHT30;64736;50.462;4.850;2023-02-02T02:42:05;7.55;77.84
76040;SHT30;64736;50.462;4.850;2023-02-02T02:44:33;7.55;77.71
76040;SHT30;64736;50.462;4.850;2023-02-02T02:47:00;7.55;77.75
76040;SHT30;64736;50.462;4.850;2023-02-02T02:49:26;7.55;77.83
76040;SHT30;64736;50.462;4.850;2023-02-02T02:51:53;7.55;77.79
76040;SHT30;64736;50.462;4.850;2023-02-02T02:56:57;7.54;77.83
76040;SHT30;64736;50.462;4.850;2023-02-02T02:59:45;7.53;77.84
76040;SHT30;64736;50.462;4.850;2023-02-02T03:02:32;7.53;77.73
76040;SHT30;64736;50.462;4.850;2023-02-02T03:07:47;7.51;77.70
76040;SHT30;64736;50.462;4.850;2023-02-02T03:10:19;7.54;77.66
76040;SHT30;64736;50.462;4.850;2023-02-02T03:12:48;7.54;77.70
76040;SHT30;64736;50.462;4.850;2023-02-02T03:15:15;7.54;77.73
76040;SHT30;64736;50.462;4.850;2023-02-02T03:17:42;7.51;77.79
76040;SHT30;64736;50.462;4.850;2023-02-02T03:20:09;7.50;77.94
76040;SHT30;64736;50.462;4.850;2023-02-02T03:22:35;7.51;77.88
76040;SHT30;64736;50.462;4.850;2023-02-02T03:25:00;7.53;78.05
76040;SHT30;64736;50.462;4.850;2023-02-02T03:27:26;7.50;77.94
76040;SHT30;64736;50.462;4.850;2023-02-02T03:29:53;7.51;78.10
76040;SHT30;64736;50.462;4.850;2023-02-02T03:32:19;7.51;77.98
76040;SHT30;64736;50.462;4.850;2023-02-02T03:34:45;7.50;78.07
76040;SHT30;64736;50.462;4.850;2023-02-02T03:37:11;7.47;78.15
76040;SHT30;64736;50.462;4.850;2023-02-02T03:39:37;7.47;78.13
76040;SHT30;64736;50.462;4.850;2023-02-02T03:42:03;7.48;78.03
76040;SHT30;64736;50.462;4.850;2023-02-02T03:44:29;7.48;78.10
76040;SHT30;64736;50.462;4.850;2023-02-02T03:46:54;7.48;77.95
76040;SHT30;64736;50.462;4.850;2023-02-02T03:49:20;7.50;78.03
76040;SHT30;64736;50.462;4.850;2023-02-02T03:51:46;7.48;77.92
76040;SHT30;64736;50.462;4.850;2023-02-02T03:54:13;7.50;77.95
76040;SHT30;64736;50.462;4.850;2023-02-02T03:56:39;7.50;78.00
76040;SHT30;64736;50.462;4.850;2023-02-02T03:59:05;7.47;78.08
76040;SHT30;64736;50.462;4.850;2023-02-02T04:01:31;7.48;78.06
76040;SHT30;64736;50.462;4.850;2023-02-02T04:03:57;7.48;78.07
76040;SHT30;64736;50.462;4.850;2023-02-02T04:06:24;7.50;78.17
76040;SHT30;64736;50.462;4.850;2023-02-02T04:08:50;7.48;78.33
76040;SHT30;64736;50.462;4.850;2023-02-02T04:11:16;7.47;78.29
76040;SHT30;64736;50.462;4.850;2023-02-02T04:13:42;7.47;78.43
76040;SHT30;64736;50.462;4.850;2023-02-02T04:16:09;7.46;78.51
76040;SHT30;64736;50.462;4.850;2023-02-02T04:18:35;7.48;78.45
76040;SHT30;64736;50.462;4.850;2023-02-02T04:21:04;7.47;78.62
76040;SHT30;64736;50.462;4.850;2023-02-02T04:23:31;7.43;78.71
76040;SHT30;64736;50.462;4.850;2023-02-02T04:25:58;7.46;78.63
76040;SHT30;64736;50.462;4.850;2023-02-02T04:28:25;7.46;78.68
76040;SHT30;64736;50.462;4.850;2023-02-02T04:30:52;7.46;78.57
76040;SHT30;64736;50.462;4.850;2023-02-02T04:33:19;7.50;78.61
76040;SHT30;64736;50.462;4.850;2023-02-02T04:35:45;7.50;78.59
76040;SHT30;64736;50.462;4.850;2023-02-02T04:38:11;7.47;78.56
76040;SHT30;64736;50.462;4.850;2023-02-02T04:40:42;7.47;78.54
76040;SHT30;64736;50.462;4.850;2023-02-02T04:43:09;7.50;78.50
76040;SHT30;64736;50.462;4.850;2023-02-02T04:45:35;7.48;78.63
76040;SHT30;64736;50.462;4.850;2023-02-02T04:48:01;7.48;78.77
76040;SHT30;64736;50.462;4.850;2023-02-02T04:50:27;7.48;78.97
76040;SHT30;64736;50.462;4.850;2023-02-02T04:52:53;7.46;79.12
76040;SHT30;64736;50.462;4.850;2023-02-02T04:55:18;7.40;79.85
76040;SHT30;64736;50.462;4.850;2023-02-02T04:57:44;7.37;79.75
76040;SHT30;64736;50.462;4.850;2023-02-02T05:00:11;7.36;79.73
76040;SHT30;64736;50.462;4.850;2023-02-02T05:02:38;7.36;79.80
76040;SHT30;64736;50.462;4.850;2023-02-02T05:05:06;7.36;80.48
76040;SHT30;64736;50.462;4.850;2023-02-02T05:07:32;7.28;81.53
76040;SHT30;64736;50.462;4.850;2023-02-02T05:09:57;7.22;81.67
76040;SHT30;64736;50.462;4.850;2023-02-02T05:12:23;7.19;81.48
76040;SHT30;64736;50.462;4.850;2023-02-02T05:14:49;7.19;82.20
76040;SHT30;64736;50.462;4.850;2023-02-02T05:17:15;7.13;83.12
76040;SHT30;64736;50.462;4.850;2023-02-02T05:19:41;7.10;82.87
76040;SHT30;64736;50.462;4.850;2023-02-02T05:22:07;7.06;83.14
76040;SHT30;64736;50.462;4.850;2023-02-02T05:24:33;7.05;83.81
76040;SHT30;64736;50.462;4.850;2023-02-02T05:26:59;7.00;84.01
76040;SHT30;64736;50.462;4.850;2023-02-02T05:29:28;7.00;83.99
76040;SHT30;64736;50.462;4.850;2023-02-02T05:31:57;7.02;85.08
76040;SHT30;64736;50.462;4.850;2023-02-02T05:34:22;6.93;86.85
76040;SHT30;64736;50.462;4.850;2023-02-02T05:36:48;6.76;87.88
76040;SHT30;64736;50.462;4.850;2023-02-02T05:39:15;6.74;88.20
76040;SHT30;64736;50.462;4.850;2023-02-02T05:41:41;6.72;88.15
76040;SHT30;64736;50.462;4.850;2023-02-02T05:44:08;6.71;88.43
76040;SHT30;64736;50.462;4.850;2023-02-02T05:46:36;6.67;88.40
76040;SHT30;64736;50.462;4.850;2023-02-02T05:49:02;6.59;88.23
76040;SHT30;64736;50.462;4.850;2023-02-02T05:51:50;6.58;88.57
76040;SHT30;64736;50.462;4.850;2023-02-02T05:54:16;6.52;88.99
76040;SHT30;64736;50.462;4.850;2023-02-02T05:56:50;6.48;88.77
76040;SHT30;64736;50.462;4.850;2023-02-02T05:59:17;6.44;88.96
76040;SHT30;64736;50.462;4.850;2023-02-02T06:01:44;6.40;88.71
76040;SHT30;64736;50.462;4.850;2023-02-02T06:04:09;6.37;88.74
76040;SHT30;64736;50.462;4.850;2023-02-02T06:06:35;6.31;88.67
76040;SHT30;64736;50.462;4.850;2023-02-02T06:09:03;6.33;88.61
76040;SHT30;64736;50.462;4.850;2023-02-02T06:11:29;6.30;88.55
76040;SHT30;64736;50.462;4.850;2023-02-02T06:13:55;6.28;88.43
76040;SHT30;64736;50.462;4.850;2023-02-02T06:16:21;6.31;88.43
76040;SHT30;64736;50.462;4.850;2023-02-02T06:18:47;6.33;88.36
76040;SHT30;64736;50.462;4.850;2023-02-02T06:21:13;6.38;88.30
76040;SHT30;64736;50.462;4.850;2023-02-02T06:23:39;6.42;88.06
76040;SHT30;64736;50.462;4.850;2023-02-02T06:26:14;6.47;88.08
76040;SHT30;64736;50.462;4.850;2023-02-02T06:28:41;6.48;87.85
76040;SHT30;64736;50.462;4.850;2023-02-02T06:31:09;6.51;87.74
76040;SHT30;64736;50.462;4.850;2023-02-02T06:33:36;6.59;87.66
76040;SHT30;64736;50.462;4.850;2023-02-02T06:36:03;6.59;87.81
76040;SHT30;64736;50.462;4.850;2023-02-02T06:38:30;6.54;88.20
76040;SHT30;64736;50.462;4.850;2023-02-02T06:40:59;6.52;88.38
76040;SHT30;64736;50.462;4.850;2023-02-02T06:43:26;6.52;88.35
76040;SHT30;64736;50.462;4.850;2023-02-02T06:45:52;6.52;88.35
76040;SHT30;64736;50.462;4.850;2023-02-02T06:48:18;6.54;88.32
76040;SHT30;64736;50.462;4.850;2023-02-02T06:50:43;6.58;88.16
76040;SHT30;64736;50.462;4.850;2023-02-02T06:53:09;6.63;88.06
76040;SHT30;64736;50.462;4.850;2023-02-02T06:55:35;6.65;88.02
76040;SHT30;64736;50.462;4.850;2023-02-02T06:58:01;6.64;87.72
76040;SHT30;64736;50.462;4.850;2023-02-02T07:00:28;6.63;87.34
76040;SHT30;64736;50.462;4.850;2023-02-02T07:02:54;6.71;87.31
76040;SHT30;64736;50.462;4.850;2023-02-02T07:05:20;6.78;87.32
76040;SHT30;64736;50.462;4.850;2023-02-02T07:07:49;6.86;87.12
76040;SHT30;64736;50.462;4.850;2023-02-02T07:10:16;6.88;86.65
76040;SHT30;64736;50.462;4.850;2023-02-02T07:12:43;6.88;86.32
76040;SHT30;64736;50.462;4.850;2023-02-02T07:15:09;6.92;86.24
76040;SHT30;64736;50.462;4.850;2023-02-02T07:17:35;6.89;86.22
76040;SHT30;64736;50.462;4.850;2023-02-02T07:20:01;6.91;86.98
76040;SHT30;64736;50.462;4.850;2023-02-02T07:22:26;6.89;87.26
76040;SHT30;64736;50.462;4.850;2023-02-02T07:24:52;6.88;87.33
76040;SHT30;64736;50.462;4.850;2023-02-02T07:27:18;6.91;87.38
76040;SHT30;64736;50.462;4.850;2023-02-02T07:29:43;6.89;86.77
76040;SHT30;64736;50.462;4.850;2023-02-02T07:32:09;6.89;87.32
76040;SHT30;64736;50.462;4.850;2023-02-02T07:34:38;6.85;87.78
76040;SHT30;64736;50.462;4.850;2023-02-02T07:37:04;6.78;88.08
76040;SHT30;64736;50.462;4.850;2023-02-02T07:39:30;6.78;88.14
76040;SHT30;64736;50.462;4.850;2023-02-02T07:41:55;6.74;88.20
76040;SHT30;64736;50.462;4.850;2023-02-02T07:44:21;6.74;88.32
76040;SHT30;64736;50.462;4.850;2023-02-02T07:46:47;6.68;88.27
76040;SHT30;64736;50.462;4.850;2023-02-02T07:49:15;6.64;88.59
76040;SHT30;64736;50.462;4.850;2023-02-02T07:51:41;6.61;88.39
76040;SHT30;64736;50.462;4.850;2023-02-02T07:54:07;6.59;88.35
76040;SHT30;64736;50.462;4.850;2023-02-02T07:56:34;6.58;88.28
76040;SHT30;64736;50.462;4.850;2023-02-02T07:59:00;6.67;88.12
76040;SHT30;64736;50.462;4.850;2023-02-02T08:01:27;6.69;87.66
76040;SHT30;64736;50.462;4.850;2023-02-02T08:03:54;6.71;87.44
76040;SHT30;64736;50.462;4.850;2023-02-02T08:08:48;6.79;86.94
76040;SHT30;64736;50.462;4.850;2023-02-02T08:11:15;6.89;86.61
76040;SHT30;64736;50.462;4.850;2023-02-02T08:13:42;6.95;86.21
76040;SHT30;64736;50.462;4.850;2023-02-02T08:16:10;6.99;85.80
76040;SHT30;64736;50.462;4.850;2023-02-02T08:18:36;6.97;85.54
76040;SHT30;64736;50.462;4.850;2023-02-02T08:21:04;7.03;85.41
76040;SHT30;64736;50.462;4.850;2023-02-02T08:23:30;7.06;85.24
76040;SHT30;64736;50.462;4.850;2023-02-02T08:26:11;7.06;84.89
76040;SHT30;64736;50.462;4.850;2023-02-02T08:28:38;7.13;84.68
76040;SHT30;64736;50.462;4.850;2023-02-02T08:31:15;7.19;84.76
76040;SHT30;64736;50.462;4.850;2023-02-02T08:33:42;7.16;84.74
76040;SHT30;64736;50.462;4.850;2023-02-02T08:36:13;7.15;85.62
76040;SHT30;64736;50.462;4.850;2023-02-02T08:38:39;7.10;86.32
76040;SHT30;64736;50.462;4.850;2023-02-02T08:41:06;7.05;86.91
76040;SHT30;64736;50.462;4.850;2023-02-02T08:43:32;7.02;87.58
76040;SHT30;64736;50.462;4.850;2023-02-02T08:45:58;6.97;88.22
76040;SHT30;64736;50.462;4.850;2023-02-02T08:48:24;6.92;88.80
76040;SHT30;64736;50.462;4.850;2023-02-02T08:50:54;6.86;89.46
76040;SHT30;64736;50.462;4.850;2023-02-02T08:53:20;6.84;89.81
76040;SHT30;64736;50.462;4.850;2023-02-02T08:55:47;6.81;89.97
76040;SHT30;64736;50.462;4.850;2023-02-02T08:58:13;6.82;90.14
76040;SHT30;64736;50.462;4.850;2023-02-02T09:00:39;6.69;89.60
76040;SHT30;64736;50.462;4.850;2023-02-02T09:03:05;6.92;89.82
76040;SHT30;64736;50.462;4.850;2023-02-02T09:05:31;6.93;89.71
76040;SHT30;64736;50.462;4.850;2023-02-02T09:07:57;6.97;89.68
76040;SHT30;64736;50.462;4.850;2023-02-02T09:10:23;7.00;89.48
76040;SHT30;64736;50.462;4.850;2023-02-02T09:12:49;6.99;89.28
76040;SHT30;64736;50.462;4.850;2023-02-02T09:15:15;7.09;89.28
76040;SHT30;64736;50.462;4.850;2023-02-02T09:17:40;7.09;89.08
76040;SHT30;64736;50.462;4.850;2023-02-02T09:20:07;7.05;88.60
76040;SHT30;64736;50.462;4.850;2023-02-02T09:22:32;7.05;88.30
76040;SHT30;64736;50.462;4.850;2023-02-02T09:24:58;7.07;87.86
76040;SHT30;64736;50.462;4.850;2023-02-02T09:27:24;7.22;87.44
76040;SHT30;64736;50.462;4.850;2023-02-02T09:29:50;7.28;86.52
76040;SHT30;64736;50.462;4.850;2023-02-02T09:32:17;7.31;86.50
76040;SHT30;64736;50.462;4.850;2023-02-02T09:34:43;7.31;86.66
76040;SHT30;64736;50.462;4.850;2023-02-02T09:37:09;7.30;85.99
76040;SHT30;64736;50.462;4.850;2023-02-02T09:39:34;7.36;85.92
76040;SHT30;64736;50.462;4.850;2023-02-02T09:47:27;7.44;84.36
76040;SHT30;64736;50.462;4.850;2023-02-02T09:55:51;7.68;82.59
76040;SHT30;64736;50.462;4.850;2023-02-02T09:58:23;7.67;81.43
76040;SHT30;64736;50.462;4.850;2023-02-02T10:01:17;7.74;81.34
76040;SHT30;64736;50.462;4.850;2023-02-02T10:06:41;7.82;80.38
76040;SHT30;64736;50.462;4.850;2023-02-02T10:09:40;7.84;79.92
76040;SHT30;64736;50.462;4.850;2023-02-02T10:12:43;7.92;79.76
76040;SHT30;64736;50.462;4.850;2023-02-02T10:23:24;8.10;78.27
76040;SHT30;64736;50.462;4.850;2023-02-02T10:34:11;8.25;77.57
76040;SHT30;64736;50.462;4.850;2023-02-02T10:45:03;8.49;76.34
76040;SHT30;64736;50.462;4.850;2023-02-02T10:47:36;8.68;76.52
76040;SHT30;64736;50.462;4.850;2023-02-02T10:52:37;8.92;75.59
76040;SHT30;64736;50.462;4.850;2023-02-02T11:02:51;9.04;74.53
76040;SHT30;64736;50.462;4.850;2023-02-02T11:05:23;8.98;74.34
76040;SHT30;64736;50.462;4.850;2023-02-02T11:08:23;9.05;73.74
76040;SHT30;64736;50.462;4.850;2023-02-02T11:10:52;9.18;73.94
76040;SHT30;64736;50.462;4.850;2023-02-02T11:13:31;8.97;74.33
76040;SHT30;64736;50.462;4.850;2023-02-02T11:18:39;9.22;73.41
76040;SHT30;64736;50.462;4.850;2023-02-02T11:21:30;9.29;72.91
76040;SHT30;64736;50.462;4.850;2023-02-02T11:26:44;9.30;73.05
76040;SHT30;64736;50.462;4.850;2023-02-02T11:29:14;9.18;72.71
76040;SHT30;64736;50.462;4.850;2023-02-02T11:31:43;9.30;73.04
76040;SHT30;64736;50.462;4.850;2023-02-02T11:34:18;9.11;72.57
76040;SHT30;64736;50.462;4.850;2023-02-02T11:37:09;9.01;72.53
76040;SHT30;64736;50.462;4.850;2023-02-02T11:39:39;9.35;71.77
76040;SHT30;64736;50.462;4.850;2023-02-02T11:44:46;9.70;71.14
76040;SHT30;64736;50.462;4.850;2023-02-02T11:47:27;9.69;70.70
76040;SHT30;64736;50.462;4.850;2023-02-02T11:49:56;9.80;71.43
76040;SHT30;64736;50.462;4.850;2023-02-02T11:52:24;9.78;70.33
76040;SHT30;64736;50.462;4.850;2023-02-02T11:54:56;10.09;69.33
76040;SHT30;64736;50.462;4.850;2023-02-02T11:57:24;9.90;70.01
76040;SHT30;64736;50.462;4.850;2023-02-02T12:02:33;9.98;68.70
76040;SHT30;64736;50.462;4.850;2023-02-02T12:07:51;10.71;66.00
76040;SHT30;64736;50.462;4.850;2023-02-02T12:12:55;10.76;65.14
76040;SHT30;64736;50.462;4.850;2023-02-02T12:21:04;10.50;66.73
76040;SHT30;64736;50.462;4.850;2023-02-02T12:26:28;10.41;65.84
76040;SHT30;64736;50.462;4.850;2023-02-02T12:37:05;10.77;64.83
76040;SHT30;64736;50.462;4.850;2023-02-02T12:48:25;10.02;65.61
76040;SHT30;64736;50.462;4.850;2023-02-02T12:53:55;9.84;67.95
76040;SHT30;64736;50.462;4.850;2023-02-02T12:56:43;10.25;65.57
76040;SHT30;64736;50.462;4.850;2023-02-02T13:07:56;10.19;66.37
76040;SHT30;64736;50.462;4.850;2023-02-02T13:15:42;9.99;66.28
76040;SHT30;64736;50.462;4.850;2023-02-02T13:18:28;9.90;66.82
76040;SHT30;64736;50.462;4.850;2023-02-02T13:21:01;9.95;66.83
76040;SHT30;64736;50.462;4.850;2023-02-02T13:23:33;9.73;67.46
76040;SHT30;64736;50.462;4.850;2023-02-02T13:26:26;10.04;66.66
76040;SHT30;64736;50.462;4.850;2023-02-02T13:31:50;9.91;67.90
76040;SHT30;64736;50.462;4.850;2023-02-02T13:39:46;10.01;68.13
76040;SHT30;64736;50.462;4.850;2023-02-02T13:47:57;10.19;66.90
76040;SHT30;64736;50.462;4.850;2023-02-02T13:50:25;9.97;68.15
76040;SHT30;64736;50.462;4.850;2023-02-02T13:58:53;10.56;66.96
76040;SHT30;64736;50.462;4.850;2023-02-02T14:01:24;10.60;66.27
76040;SHT30;64736;50.462;4.850;2023-02-02T14:03:53;10.57;66.09
76040;SHT30;64736;50.462;4.850;2023-02-02T14:06:21;10.66;66.25
76040;SHT30;64736;50.462;4.850;2023-02-02T14:09:02;10.81;65.69
76040;SHT30;64736;50.462;4.850;2023-02-02T14:11:32;10.41;66.02
76040;SHT30;64736;50.462;4.850;2023-02-02T14:14:19;10.67;66.12
76040;SHT30;64736;50.462;4.850;2023-02-02T14:17:11;10.49;66.13
76040;SHT30;64736;50.462;4.850;2023-02-02T14:20:00;10.50;66.69
76040;SHT30;64736;50.462;4.850;2023-02-02T14:22:44;10.56;66.72
76040;SHT30;64736;50.462;4.850;2023-02-02T14:28:06;10.42;66.87
76040;SHT30;64736;50.462;4.850;2023-02-02T14:30:35;10.55;66.84
76040;SHT30;64736;50.462;4.850;2023-02-02T14:33:25;10.50;66.62
76040;SHT30;64736;50.462;4.850;2023-02-02T14:35:56;10.36;67.12
76040;SHT30;64736;50.462;4.850;2023-02-02T14:41:29;10.46;66.44
76040;SHT30;64736;50.462;4.850;2023-02-02T14:44:17;10.31;67.50
76040;SHT30;64736;50.462;4.850;2023-02-02T14:46:43;10.45;66.92
76040;SHT30;64736;50.462;4.850;2023-02-02T14:49:18;10.36;67.25
76040;SHT30;64736;50.462;4.850;2023-02-02T14:51:52;10.28;68.51
76040;SHT30;64736;50.462;4.850;2023-02-02T14:54:26;10.36;67.79
76040;SHT30;64736;50.462;4.850;2023-02-02T14:56:59;10.32;68.04
76040;SHT30;64736;50.462;4.850;2023-02-02T14:59:28;10.31;67.53
76040;SHT30;64736;50.462;4.850;2023-02-02T15:04:42;10.25;68.04
76040;SHT30;64736;50.462;4.850;2023-02-02T15:09:54;10.14;68.55
76040;SHT30;64736;50.462;4.850;2023-02-02T15:12:33;10.09;68.67
76040;SHT30;64736;50.462;4.850;2023-02-02T15:15:13;10.12;68.80
76040;SHT30;64736;50.462;4.850;2023-02-02T15:17:44;10.08;69.02
76040;SHT30;64736;50.462;4.850;2023-02-02T15:20:29;10.06;68.85
76040;SHT30;64736;50.462;4.850;2023-02-02T15:25:59;10.04;69.28
76040;SHT30;64736;50.462;4.850;2023-02-02T15:33:45;10.05;70.48
76040;SHT30;64736;50.462;4.850;2023-02-02T15:36:22;10.01;70.40
76040;SHT30;64736;50.462;4.850;2023-02-02T15:38:52;10.01;70.79
76040;SHT30;64736;50.462;4.850;2023-02-02T15:43:48;9.99;71.08
76040;SHT30;64736;50.462;4.850;2023-02-02T15:46:19;9.97;71.31
76040;SHT30;64736;50.462;4.850;2023-02-02T15:51:51;9.81;73.14
76040;SHT30;64736;50.462;4.850;2023-02-02T15:56:55;9.44;81.68
76040;SHT30;64736;50.462;4.850;2023-02-02T15:59:24;9.20;81.73
76040;SHT30;64736;50.462;4.850;2023-02-02T16:02:18;9.09;81.83
76040;SHT30;64736;50.462;4.850;2023-02-02T16:04:46;9.05;81.55
76040;SHT30;64736;50.462;4.850;2023-02-02T16:07:19;9.02;82.22
76040;SHT30;64736;50.462;4.850;2023-02-02T16:09:47;8.92;85.26
76040;SHT30;64736;50.462;4.850;2023-02-02T16:12:18;8.80;85.71
76040;SHT30;64736;50.462;4.850;2023-02-02T16:14:50;8.72;86.72
76040;SHT30;64736;50.462;4.850;2023-02-02T16:17:25;8.59;87.50
76040;SHT30;64736;50.462;4.850;2023-02-02T16:22:34;8.47;88.21
76040;SHT30;64736;50.462;4.850;2023-02-02T16:25:06;8.49;88.98
76040;SHT30;64736;50.462;4.850;2023-02-02T16:27:34;8.47;89.17
76040;SHT30;64736;50.462;4.850;2023-02-02T16:30:08;8.49;89.15
76040;SHT30;64736;50.462;4.850;2023-02-02T16:32:37;8.47;88.95
76040;SHT30;64736;50.462;4.850;2023-02-02T16:38:30;8.43;89.06
76040;SHT30;64736;50.462;4.850;2023-02-02T16:43:31;8.43;88.48
76040;SHT30;64736;50.462;4.850;2023-02-02T16:45:59;8.41;88.04
76040;SHT30;64736;50.462;4.850;2023-02-02T16:48:36;8.47;87.86
76040;SHT30;64736;50.462;4.850;2023-02-02T16:53:43;8.49;87.55
76040;SHT30;64736;50.462;4.850;2023-02-02T16:56:22;8.50;87.42
76040;SHT30;64736;50.462;4.850;2023-02-02T16:58:51;8.49;87.30
76040;SHT30;64736;50.462;4.850;2023-02-02T17:01:35;8.51;87.12
76040;SHT30;64736;50.462;4.850;2023-02-02T17:04:03;8.50;86.42
76040;SHT30;64736;50.462;4.850;2023-02-02T17:06:31;8.51;86.01
76040;SHT30;64736;50.462;4.850;2023-02-02T17:09:37;8.56;85.80
76040;SHT30;64736;50.462;4.850;2023-02-02T17:12:23;8.57;85.39
76040;SHT30;64736;50.462;4.850;2023-02-02T17:14:51;8.57;85.28
76040;SHT30;64736;50.462;4.850;2023-02-02T17:17:17;8.59;85.13
76040;SHT30;64736;50.462;4.850;2023-02-02T17:19:43;8.54;85.09
76040;SHT30;64736;50.462;4.850;2023-02-02T17:22:09;8.57;84.86
76040;SHT30;64736;50.462;4.850;2023-02-02T17:24:35;8.53;84.93
76040;SHT30;64736;50.462;4.850;2023-02-02T17:27:02;8.54;85.01
76040;SHT30;64736;50.462;4.850;2023-02-02T17:29:27;8.59;84.36
76040;SHT30;64736;50.462;4.850;2023-02-02T17:31:53;8.57;84.29
76040;SHT30;64736;50.462;4.850;2023-02-02T17:34:21;8.64;84.63
76040;SHT30;64736;50.462;4.850;2023-02-02T17:36:46;8.59;84.41
76040;SHT30;64736;50.462;4.850;2023-02-02T17:39:12;8.59;84.32
76040;SHT30;64736;50.462;4.850;2023-02-02T17:41:38;8.61;84.25
76040;SHT30;64736;50.462;4.850;2023-02-02T17:44:04;8.63;84.02
76040;SHT30;64736;50.462;4.850;2023-02-02T17:46:31;8.65;84.10
76040;SHT30;64736;50.462;4.850;2023-02-02T17:48:57;8.67;83.86
76040;SHT30;64736;50.462;4.850;2023-02-02T17:51:23;8.71;83.62
76040;SHT30;64736;50.462;4.850;2023-02-02T17:53:49;8.65;83.35
76040;SHT30;64736;50.462;4.850;2023-02-02T17:56:17;8.71;83.08
76040;SHT30;64736;50.462;4.850;2023-02-02T17:58:43;8.70;83.30
76040;SHT30;64736;50.462;4.850;2023-02-02T18:01:10;8.74;83.15
76040;SHT30;64736;50.462;4.850;2023-02-02T18:03:37;8.74;83.15
76040;SHT30;64736;50.462;4.850;2023-02-02T18:06:04;8.72;83.14
76040;SHT30;64736;50.462;4.850;2023-02-02T18:08:30;8.75;83.06
76040;SHT30;64736;50.462;4.850;2023-02-02T18:10:58;8.74;83.13
76040;SHT30;64736;50.462;4.850;2023-02-02T18:13:25;8.77;83.27
76040;SHT30;64736;50.462;4.850;2023-02-02T18:15:52;8.80;83.32
76040;SHT30;64736;50.462;4.850;2023-02-02T18:18:18;8.77;83.02
76040;SHT30;64736;50.462;4.850;2023-02-02T18:20:45;8.81;82.90
76040;SHT30;64736;50.462;4.850;2023-02-02T18:23:12;8.81;83.09
76040;SHT30;64736;50.462;4.850;2023-02-02T18:25:38;8.81;83.10
76040;SHT30;64736;50.462;4.850;2023-02-02T18:28:08;8.81;82.86
76040;SHT30;64736;50.462;4.850;2023-02-02T18:30:36;8.81;82.70
76040;SHT30;64736;50.462;4.850;2023-02-02T18:33:02;8.81;82.63
76040;SHT30;64736;50.462;4.850;2023-02-02T18:35:28;8.82;82.61
76040;SHT30;64736;50.462;4.850;2023-02-02T18:37:53;8.77;82.26
76040;SHT30;64736;50.462;4.850;2023-02-02T18:40:19;8.85;82.30
76040;SHT30;64736;50.462;4.850;2023-02-02T18:42:45;8.84;82.19
76040;SHT30;64736;50.462;4.850;2023-02-02T18:45:11;8.85;82.25
76040;SHT30;64736;50.462;4.850;2023-02-02T18:47:37;8.87;81.87
76040;SHT30;64736;50.462;4.850;2023-02-02T18:50:05;8.84;81.86
76040;SHT30;64736;50.462;4.850;2023-02-02T18:52:32;8.88;81.62
76040;SHT30;64736;50.462;4.850;2023-02-02T18:54:57;8.82;81.67
76040;SHT30;64736;50.462;4.850;2023-02-02T18:57:23;8.89;81.75
76040;SHT30;64736;50.462;4.850;2023-02-02T18:59:49;8.88;81.76
76040;SHT30;64736;50.462;4.850;2023-02-02T19:02:18;8.85;81.41
76040;SHT30;64736;50.462;4.850;2023-02-02T19:04:44;8.84;81.53
76040;SHT30;64736;50.462;4.850;2023-02-02T19:07:29;8.85;81.53